createdAt,value
2022-08-05T00:01:27.910Z,5.85
2022-08-05T00:03:57.189Z,4.45
2022-08-05T00:06:30.706Z,4.57
2022-08-05T00:09:00.357Z,5.53
2022-08-05T00:11:34.826Z,4.93
2022-08-05T00:14:12.887Z,5.55
2022-08-05T00:16:53.283Z,5.63
2022-08-05T00:19:24.702Z,5.65
2022-08-05T00:21:52.231Z,7.25
2022-08-05T00:24:24.598Z,5.20
2022-08-05T00:26:57.072Z,5.10
2022-08-05T00:29:25.880Z,6.25
2022-08-05T00:32:12.651Z,3.97
2022-08-05T00:34:56.057Z,6.32
2022-08-05T00:37:35.474Z,3.88
2022-08-05T00:40:17.678Z,6.72
2022-08-05T00:42:53.533Z,6.13
2022-08-05T00:45:39.027Z,5.57
2022-08-05T00:48:08.288Z,4.82
2022-08-05T00:50:36.330Z,5.22
2022-08-05T00:53:03.307Z,6.65
2022-08-05T00:55:43.522Z,5.90
2022-08-05T00:58:16.876Z,10.00
2022-08-05T01:00:46.739Z,6.15
2022-08-05T01:03:22.242Z,5.80
2022-08-05T01:05:50.068Z,7.68
2022-08-05T01:08:41.886Z,9.50
2022-08-05T01:11:11.057Z,8.30
2022-08-05T01:13:58.751Z,7.47
2022-08-05T01:16:53.428Z,6.55
2022-08-05T01:20:00.691Z,7.55
2022-08-05T01:22:28.820Z,7.07
2022-08-05T01:25:14.251Z,5.88
2022-08-05T01:28:15.501Z,8.90
2022-08-05T01:31:11.575Z,6.60
2022-08-05T01:33:49.214Z,5.97
2022-08-05T01:36:27.943Z,8.02
2022-08-05T01:38:56.724Z,8.45
2022-08-05T01:41:31.214Z,8.48
2022-08-05T01:44:01.368Z,6.47
2022-08-05T01:46:42.963Z,9.68
2022-08-05T01:49:24.144Z,5.18
2022-08-05T01:51:58.275Z,8.82
2022-08-05T01:54:30.022Z,7.80
2022-08-05T01:58:12.462Z,9.07
2022-08-05T01:59:48.329Z,6.45
2022-08-05T02:02:16.608Z,6.15
2022-08-05T02:04:49.677Z,8.40
2022-08-05T02:07:21.883Z,10.45
2022-08-05T02:09:50.381Z,8.75
2022-08-05T02:12:30.958Z,8.65
2022-08-05T02:15:15.610Z,10.32
2022-08-05T02:18:31.604Z,9.95
2022-08-05T02:20:54.410Z,6.30
2022-08-05T02:23:33.763Z,8.30
2022-08-05T02:26:05.949Z,9.25
2022-08-05T02:28:41.475Z,7.53
2022-08-05T02:31:15.024Z,7.15
2022-08-05T02:33:48.489Z,8.35
2022-08-05T02:36:19.018Z,5.85
2022-08-05T02:38:52.885Z,9.93
2022-08-05T02:41:22.770Z,10.05
2022-08-05T02:44:02.680Z,11.93
2022-08-05T02:46:53.272Z,8.63
2022-08-05T02:49:36.479Z,8.48
2022-08-05T02:52:09.652Z,8.10
2022-08-05T02:54:41.387Z,7.50
2022-08-05T02:58:09.336Z,6.70
2022-08-05T02:59:59.561Z,8.95
2022-08-05T03:02:40.609Z,10.80
2022-08-05T03:05:11.105Z,8.73
2022-08-05T03:08:01.679Z,6.38
2022-08-05T03:10:26.301Z,7.68
2022-08-05T03:15:23.558Z,8.00
2022-08-05T03:17:53.935Z,9.23
2022-08-05T03:20:21.953Z,6.78
2022-08-05T03:22:50.604Z,14.02
2022-08-05T03:25:33.974Z,8.23
2022-08-05T03:28:08.637Z,9.38
2022-08-05T03:30:36.752Z,8.77
2022-08-05T03:33:06.331Z,6.70
2022-08-05T03:35:40.529Z,6.97
2022-08-05T03:38:12.277Z,9.35
2022-08-05T03:40:45.058Z,9.03
2022-08-05T03:43:58.307Z,10.32
2022-08-05T03:46:01.701Z,10.55
2022-08-05T03:48:29.420Z,13.80
2022-08-05T03:52:35.362Z,10.07
2022-08-05T03:55:51.628Z,7.72
2022-08-05T03:57:28.983Z,10.40
2022-08-05T04:00:15.960Z,9.85
2022-08-05T04:02:57.708Z,10.20
2022-08-05T04:05:27.992Z,10.82
2022-08-05T04:08:03.309Z,10.75
2022-08-05T04:10:37.919Z,7.90
2022-08-05T04:13:06.042Z,10.00
2022-08-05T04:15:36.122Z,11.90
2022-08-05T04:18:09.342Z,15.45
2022-08-05T04:20:36.918Z,11.82
2022-08-05T04:23:03.486Z,14.23
2022-08-05T04:25:56.789Z,15.68
2022-08-05T04:28:17.395Z,12.57
2022-08-05T04:30:44.611Z,11.27
2022-08-05T04:33:12.267Z,12.00
2022-08-05T04:36:15.789Z,14.30
2022-08-05T04:38:39.682Z,13.02
2022-08-05T04:41:07.527Z,13.60
2022-08-05T04:43:36.283Z,13.45
2022-08-05T04:46:04.453Z,12.32
2022-08-05T04:48:32.214Z,12.23
2022-08-05T04:51:02.593Z,11.73
2022-08-05T04:53:36.431Z,13.15
2022-08-05T04:56:33.382Z,14.70
2022-08-05T04:58:55.396Z,11.75
2022-08-05T05:01:33.436Z,12.63
2022-08-05T05:04:00.547Z,10.85
2022-08-05T05:06:39.794Z,12.77
2022-08-05T05:09:14.154Z,13.63
2022-08-05T05:11:54.405Z,10.60
2022-08-05T05:14:27.776Z,8.38
2022-08-05T05:17:01.217Z,10.02
2022-08-05T05:19:37.044Z,12.55
2022-08-05T05:22:24.339Z,10.33
2022-08-05T05:24:57.794Z,11.05
2022-08-05T05:27:45.911Z,15.05
2022-08-05T05:30:30.802Z,12.18
2022-08-05T05:33:09.291Z,12.15
2022-08-05T05:35:46.938Z,11.40
2022-08-05T05:38:14.537Z,11.48
2022-08-05T05:40:49.866Z,9.15
2022-08-05T05:43:27.678Z,13.40
2022-08-05T05:46:10.658Z,8.95
2022-08-05T05:48:37.345Z,9.25
2022-08-05T05:51:15.263Z,9.55
2022-08-05T05:53:54.214Z,9.88
2022-08-05T05:56:32.507Z,8.15
2022-08-05T05:59:05.213Z,11.07
2022-08-05T06:01:37.042Z,5.80
2022-08-05T06:04:14.314Z,7.03
2022-08-05T06:06:47.407Z,7.07
2022-08-05T06:09:25.412Z,8.55
2022-08-05T06:12:01.747Z,7.75
2022-08-05T06:14:33.371Z,8.32
2022-08-05T06:17:22.237Z,8.00
2022-08-05T06:19:56.315Z,8.48
2022-08-05T06:22:29.683Z,9.48
2022-08-05T06:24:56.490Z,9.15
2022-08-05T06:28:11.537Z,9.07
2022-08-05T06:30:16.831Z,10.25
2022-08-05T06:32:44.824Z,8.30
2022-08-05T06:35:21.798Z,7.15
2022-08-05T06:38:03.069Z,8.63
2022-08-05T06:40:36.571Z,7.53
2022-08-05T06:43:57.605Z,9.27
2022-08-05T06:46:03.762Z,7.85
2022-08-05T06:48:52.740Z,9.05
2022-08-05T06:51:26.608Z,10.32
2022-08-05T06:54:00.443Z,9.15
2022-08-05T06:56:29.244Z,7.17
2022-08-05T06:58:56.644Z,7.13
2022-08-05T07:01:27.755Z,6.72
2022-08-05T07:03:59.727Z,7.47
2022-08-05T07:06:27.727Z,6.70
2022-08-05T07:08:55.246Z,7.07
2022-08-05T07:11:25.263Z,5.57
2022-08-05T07:14:15.453Z,6.13
2022-08-05T07:18:01.616Z,7.63
2022-08-05T07:22:28.540Z,8.75
2022-08-05T07:25:22.130Z,7.40
2022-08-05T07:27:57.992Z,5.68
2022-08-05T07:30:33.598Z,6.03
2022-08-05T07:33:09.541Z,4.80
2022-08-05T07:36:02.054Z,6.07
2022-08-05T07:38:33.271Z,6.63
2022-08-05T07:41:35.068Z,7.05
2022-08-05T07:43:57.554Z,5.32
2022-08-05T07:46:29.758Z,3.70
2022-08-05T07:49:02.125Z,5.97
2022-08-05T07:51:36.968Z,5.35
2022-08-05T07:54:08.454Z,6.90
2022-08-05T07:57:00.759Z,5.45
2022-08-05T07:59:31.365Z,4.72
2022-08-05T08:02:07.599Z,5.75
2022-08-05T08:04:42.861Z,7.72
2022-08-05T08:07:12.164Z,5.70
2022-08-05T08:09:38.635Z,5.43
2022-08-05T08:12:14.030Z,4.75
2022-08-05T08:14:47.098Z,6.32
2022-08-05T08:17:15.988Z,5.70
2022-08-05T08:20:22.840Z,5.07
2022-08-05T08:22:32.338Z,5.93
2022-08-05T08:25:03.478Z,5.28
2022-08-05T08:27:44.825Z,7.68
2022-08-05T08:30:29.612Z,6.43
2022-08-05T08:33:08.191Z,7.82
2022-08-05T08:35:41.009Z,5.15
2022-08-05T08:38:08.677Z,7.82
2022-08-05T08:40:45.682Z,6.75
2022-08-05T08:44:56.416Z,6.68
2022-08-05T08:46:06.399Z,5.57
2022-08-05T08:48:41.677Z,5.88
2022-08-05T08:52:03.881Z,5.00
2022-08-05T08:54:14.155Z,4.50
2022-08-05T08:56:47.932Z,6.15
2022-08-05T08:59:19.638Z,6.57
2022-08-05T09:01:57.359Z,7.93
2022-08-05T09:04:30.738Z,7.78
2022-08-05T09:09:25.346Z,6.03
2022-08-05T09:11:54.779Z,6.07
2022-08-05T09:14:57.714Z,8.52
2022-08-05T09:17:40.210Z,6.93
2022-08-05T09:20:02.672Z,7.22
2022-08-05T09:23:18.794Z,5.67
2022-08-05T09:26:00.898Z,6.72
2022-08-05T09:28:33.618Z,6.55
2022-08-05T09:31:43.197Z,6.40
2022-08-05T09:33:54.688Z,5.75
2022-08-05T09:36:27.954Z,4.60
2022-08-05T09:39:03.699Z,5.47
2022-08-05T09:42:03.872Z,7.82
2022-08-05T09:44:34.433Z,4.70
2022-08-05T09:47:10.451Z,6.78
2022-08-05T09:50:00.921Z,7.45
2022-08-05T09:52:36.205Z,5.13
2022-08-05T09:55:56.562Z,8.43
2022-08-05T09:57:59.980Z,5.95
2022-08-05T10:00:29.587Z,5.68
2022-08-05T10:02:58.075Z,6.68
2022-08-05T10:05:27.906Z,5.30
2022-08-05T10:08:36.791Z,5.90
2022-08-05T10:10:50.280Z,5.95
2022-08-05T10:16:28.727Z,5.03
2022-08-05T10:18:56.794Z,4.18
2022-08-05T10:21:24.113Z,3.67
2022-08-05T10:24:00.055Z,4.05
2022-08-05T10:26:32.652Z,4.65
2022-08-05T10:29:00.424Z,4.07
2022-08-05T10:32:54.347Z,5.85
2022-08-05T10:34:13.610Z,4.63
2022-08-05T10:36:41.412Z,6.38
2022-08-05T10:39:25.061Z,4.57
2022-08-05T10:42:11.365Z,5.15
2022-08-05T10:44:39.127Z,6.05
2022-08-05T10:47:26.897Z,3.17
2022-08-05T10:50:20.606Z,3.60
2022-08-05T10:52:59.855Z,5.05
2022-08-05T10:55:27.194Z,4.13
2022-08-05T10:58:08.740Z,4.82
2022-08-05T11:00:42.182Z,4.05
2022-08-05T11:03:25.674Z,4.68
2022-08-05T11:06:08.477Z,3.55
2022-08-05T11:08:37.502Z,4.72
2022-08-05T11:11:33.151Z,5.10
2022-08-05T11:14:13.295Z,4.28
2022-08-05T11:16:55.941Z,5.22
2022-08-05T11:22:50.048Z,4.30
2022-08-05T11:26:04.383Z,6.83
2022-08-05T11:28:20.082Z,5.30
2022-08-05T11:30:55.585Z,5.47
2022-08-05T11:33:43.830Z,4.10
2022-08-05T11:36:16.098Z,4.32
2022-08-05T11:39:01.583Z,5.30
2022-08-05T11:41:58.330Z,4.80
2022-08-05T11:44:40.925Z,5.68
2022-08-05T11:47:10.986Z,3.85
2022-08-05T11:49:39.641Z,5.25
2022-08-05T11:52:11.264Z,4.03
2022-08-05T11:54:40.741Z,5.53
2022-08-05T11:57:25.089Z,6.45
2022-08-05T11:59:53.303Z,5.00
2022-08-05T12:02:30.117Z,4.93
2022-08-05T12:05:00.755Z,4.20
2022-08-05T12:08:08.180Z,3.38
2022-08-05T12:10:23.031Z,4.03
2022-08-05T12:12:59.520Z,5.78
2022-08-05T12:15:35.963Z,3.80
2022-08-05T12:18:10.967Z,4.45
2022-08-05T12:20:39.119Z,4.22
2022-08-05T12:23:12.233Z,3.33
2022-08-05T12:26:05.745Z,2.92
2022-08-05T12:28:36.802Z,3.42
2022-08-05T12:31:04.213Z,3.03
2022-08-05T12:33:36.287Z,3.42
2022-08-05T12:38:37.043Z,4.60
2022-08-05T12:41:12.485Z,3.78
2022-08-05T12:43:54.984Z,2.60
2022-08-05T12:46:29.525Z,4.47
2022-08-05T12:48:59.940Z,3.63
2022-08-05T12:52:12.081Z,3.17
2022-08-05T12:54:23.376Z,2.60
2022-08-05T12:56:53.213Z,2.40
2022-08-05T12:59:46.402Z,3.42
2022-08-05T13:02:10.989Z,2.47
2022-08-05T13:04:41.673Z,3.05
2022-08-05T13:07:56.082Z,2.50
2022-08-05T13:10:12.433Z,2.58
2022-08-05T13:12:51.101Z,2.00
2022-08-05T13:15:35.911Z,2.47
2022-08-05T13:18:19.629Z,3.15
2022-08-05T13:20:49.359Z,3.60
2022-08-05T13:23:18.226Z,5.10
2022-08-05T13:25:52.411Z,3.33
2022-08-05T13:28:25.778Z,3.38
2022-08-05T13:30:53.301Z,3.35
2022-08-05T13:34:24.736Z,1.75
2022-08-05T13:36:09.100Z,1.77
2022-08-05T13:38:41.993Z,1.30
2022-08-05T13:41:09.356Z,1.42
2022-08-05T13:43:44.738Z,1.48
2022-08-05T13:46:44.085Z,2.75
2022-08-05T13:49:10.044Z,3.53
2022-08-05T13:51:41.070Z,2.30
2022-08-05T13:54:13.245Z,2.25
2022-08-05T13:56:45.457Z,1.80
2022-08-05T13:59:27.106Z,1.02
2022-08-05T14:02:00.100Z,2.80
2022-08-05T14:04:51.727Z,1.85
2022-08-05T14:07:25.862Z,2.08
2022-08-05T14:10:28.001Z,1.27
2022-08-05T14:12:54.960Z,1.80
2022-08-05T14:16:07.404Z,2.30
2022-08-05T14:18:15.106Z,2.30
2022-08-05T14:20:47.675Z,1.23
2022-08-05T14:23:24.704Z,4.13
2022-08-05T14:25:54.134Z,2.25
2022-08-05T14:28:26.847Z,1.65
2022-08-05T14:33:22.798Z,1.27
2022-08-05T14:35:51.688Z,1.85
2022-08-05T14:38:32.738Z,1.15
2022-08-05T14:41:06.869Z,1.55
2022-08-05T14:44:01.511Z,3.08
2022-08-05T14:46:23.351Z,1.00
2022-08-05T14:48:58.854Z,1.02
2022-08-05T14:51:26.513Z,2.97
2022-08-05T14:54:27.150Z,1.90
2022-08-05T14:56:46.665Z,2.08
2022-08-05T14:59:14.043Z,1.30
2022-08-05T15:01:48.115Z,1.00
2022-08-05T15:04:16.388Z,3.38
2022-08-05T15:06:49.258Z,1.65
2022-08-05T15:09:50.552Z,2.60
2022-08-05T15:12:05.391Z,1.75
2022-08-05T15:14:35.838Z,2.58
2022-08-05T15:17:44.972Z,1.65
2022-08-05T15:19:56.301Z,2.17
2022-08-05T15:22:27.379Z,2.15
2022-08-05T15:24:55.506Z,1.02
2022-08-05T15:27:22.132Z,1.75
2022-08-05T15:29:51.992Z,1.92
2022-08-05T15:32:20.828Z,2.45
2022-08-05T15:34:54.067Z,3.00
2022-08-05T15:38:33.657Z,2.58
2022-08-05T15:41:00.569Z,2.05
2022-08-05T15:43:01.350Z,2.05
2022-08-05T15:45:44.150Z,0.93
2022-08-05T15:50:41.689Z,1.13
2022-08-05T15:53:10.780Z,0.98
2022-08-05T15:56:02.593Z,2.53
2022-08-05T15:58:26.117Z,2.33
2022-08-05T16:01:11.970Z,2.92
2022-08-05T16:03:41.071Z,0.68
2022-08-05T16:06:11.327Z,0.55
2022-08-05T16:08:38.714Z,2.03
2022-08-05T16:11:07.340Z,2.35
2022-08-05T16:13:35.174Z,1.38
2022-08-05T16:16:05.482Z,2.67
2022-08-05T16:18:33.053Z,2.22
2022-08-05T16:21:04.260Z,1.65
2022-08-05T16:23:32.859Z,1.15
2022-08-05T16:26:19.040Z,0.73
2022-08-05T16:28:52.867Z,3.35
2022-08-05T16:31:21.509Z,2.60
2022-08-05T16:33:48.488Z,1.00
2022-08-05T16:36:14.923Z,2.75
2022-08-05T16:38:55.045Z,2.72
2022-08-05T16:42:15.055Z,1.05
2022-08-05T16:44:14.388Z,2.92
2022-08-05T16:46:55.829Z,1.50
2022-08-05T16:49:23.956Z,2.15
2022-08-05T16:51:54.735Z,2.22
2022-08-05T16:54:27.494Z,0.75
2022-08-05T16:56:58.621Z,1.92
2022-08-05T16:59:25.112Z,1.63
2022-08-05T17:01:56.192Z,3.03
2022-08-05T17:04:26.412Z,2.25
2022-08-05T17:06:55.204Z,1.00
2022-08-05T17:09:23.196Z,3.38
2022-08-05T17:11:53.626Z,3.25
2022-08-05T17:14:36.986Z,2.63
2022-08-05T17:17:05.578Z,1.55
2022-08-05T17:19:32.144Z,0.93
2022-08-05T17:22:00.785Z,2.47
2022-08-05T17:24:38.716Z,1.40
2022-08-05T17:27:10.109Z,2.08
2022-08-05T17:29:41.208Z,2.08
2022-08-05T17:32:17.389Z,1.80
2022-08-05T17:34:47.565Z,2.40
2022-08-05T17:37:41.051Z,3.25
2022-08-05T17:40:01.248Z,2.83
2022-08-05T17:42:32.093Z,2.05
2022-08-05T17:45:18.187Z,1.48
2022-08-05T17:47:52.975Z,1.27
2022-08-05T17:50:28.952Z,1.30
2022-08-05T17:52:59.362Z,1.23
2022-08-05T17:55:27.292Z,1.27
2022-08-05T17:58:01.982Z,2.60
2022-08-05T18:00:29.565Z,3.00
2022-08-05T18:02:56.289Z,2.67
2022-08-05T18:05:23.670Z,2.92
2022-08-05T18:07:54.621Z,2.58
2022-08-05T18:10:23.270Z,2.65
2022-08-05T18:12:49.876Z,1.30
2022-08-05T18:15:16.454Z,2.30
2022-08-05T18:17:58.890Z,2.20
2022-08-05T18:20:31.590Z,2.08
2022-08-05T18:23:08.730Z,3.15
2022-08-05T18:25:38.876Z,0.98
2022-08-05T18:28:06.100Z,2.15
2022-08-05T18:30:33.689Z,2.72
2022-08-05T18:33:01.052Z,4.55
2022-08-05T18:36:01.031Z,3.35
2022-08-05T18:38:19.449Z,3.72
2022-08-05T18:41:55.078Z,1.85
2022-08-05T18:43:43.263Z,2.08
2022-08-05T18:46:15.012Z,1.67
2022-08-05T18:48:42.126Z,2.25
2022-08-05T18:52:02.497Z,4.20
2022-08-05T18:54:14.848Z,2.38
2022-08-05T18:56:41.781Z,1.73
2022-08-05T18:59:43.409Z,1.13
2022-08-05T19:02:04.548Z,3.25
2022-08-05T19:04:38.187Z,1.58
2022-08-05T19:07:24.763Z,1.90
2022-08-05T19:09:56.596Z,1.67
2022-08-05T19:12:23.578Z,2.10
2022-08-05T19:15:00.380Z,2.65
2022-08-05T19:17:59.393Z,2.15
2022-08-05T19:20:15.491Z,3.90
2022-08-05T19:22:43.338Z,2.38
2022-08-05T19:25:10.573Z,1.83
2022-08-05T19:27:48.263Z,1.38
2022-08-05T19:30:17.464Z,2.38
2022-08-05T19:32:47.132Z,2.50
2022-08-05T19:35:13.665Z,3.03
2022-08-05T19:38:04.168Z,2.22
2022-08-05T19:40:28.593Z,2.50
2022-08-05T19:43:05.053Z,2.58
2022-08-05T19:45:33.333Z,3.17
2022-08-05T19:48:04.555Z,2.90
2022-08-05T19:50:31.854Z,3.90
2022-08-05T19:52:58.468Z,2.38
2022-08-05T19:56:12.477Z,2.70
2022-08-05T19:58:29.511Z,1.92
2022-08-05T20:00:56.557Z,2.03
2022-08-05T20:03:25.338Z,5.35
2022-08-05T20:05:56.344Z,3.88
2022-08-05T20:08:24.291Z,4.30
2022-08-05T20:10:51.298Z,3.22
2022-08-05T20:13:30.128Z,2.88
2022-08-05T20:16:05.975Z,6.70
2022-08-05T20:18:35.207Z,2.65
2022-08-05T20:21:05.156Z,4.60
2022-08-05T20:23:40.007Z,4.63
2022-08-05T20:26:24.881Z,3.53
2022-08-05T20:28:55.824Z,6.75
2022-08-05T20:31:28.762Z,3.28
2022-08-05T20:34:09.822Z,2.92
2022-08-05T20:36:36.417Z,4.18
2022-08-05T20:39:05.724Z,2.72
2022-08-05T20:41:44.515Z,2.63
2022-08-05T20:44:29.922Z,3.08
2022-08-05T20:47:03.237Z,3.92
2022-08-05T20:49:30.301Z,5.17
2022-08-05T20:52:05.104Z,2.20
2022-08-05T20:54:43.009Z,2.53
2022-08-05T20:57:10.273Z,3.92
2022-08-05T21:00:11.121Z,5.38
2022-08-05T21:02:27.465Z,3.42
2022-08-05T21:04:55.137Z,4.18
2022-08-05T21:07:23.801Z,3.70
2022-08-05T21:09:53.758Z,3.15
2022-08-05T21:12:21.469Z,2.53
2022-08-05T21:14:52.513Z,3.25
2022-08-05T21:17:18.928Z,4.22
2022-08-05T21:19:50.597Z,2.40
2022-08-05T21:22:23.554Z,2.00
2022-08-05T21:24:52.271Z,4.97
2022-08-05T21:27:25.402Z,1.90
2022-08-05T21:29:57.514Z,5.03
2022-08-05T21:32:27.242Z,2.28
2022-08-05T21:35:09.012Z,3.28
2022-08-05T21:37:42.380Z,3.25
2022-08-05T21:40:14.200Z,3.75
2022-08-05T21:42:44.179Z,3.45
2022-08-05T21:45:25.071Z,2.25
2022-08-05T21:48:01.991Z,3.63
2022-08-05T21:50:33.480Z,3.95
2022-08-05T21:53:16.080Z,3.50
2022-08-05T21:56:05.395Z,2.72
2022-08-05T21:58:32.006Z,3.63
2022-08-05T22:00:59.516Z,6.35
2022-08-05T22:03:48.293Z,3.70
2022-08-05T22:06:12.497Z,4.72
2022-08-05T22:08:42.706Z,3.90
2022-08-05T22:11:15.393Z,4.10
2022-08-05T22:14:18.330Z,3.92
2022-08-05T22:16:41.816Z,4.38
2022-08-05T22:20:01.116Z,2.67
2022-08-05T22:22:01.919Z,1.80
2022-08-05T22:24:52.074Z,4.03
2022-08-05T22:28:11.211Z,3.03
2022-08-05T22:30:34.863Z,2.35
2022-08-05T22:33:02.360Z,4.03
2022-08-05T22:35:38.581Z,4.75
2022-08-05T22:38:15.528Z,2.72
2022-08-05T22:40:41.998Z,4.28
2022-08-05T22:43:16.175Z,4.35
2022-08-05T22:46:08.813Z,4.32
2022-08-05T22:48:39.458Z,4.68
2022-08-05T22:51:07.786Z,3.30
2022-08-05T22:53:35.874Z,2.78
2022-08-05T22:56:03.521Z,4.43
2022-08-05T22:58:36.449Z,4.50
2022-08-05T23:01:02.940Z,3.10
2022-08-05T23:03:58.461Z,3.20
2022-08-05T23:06:18.995Z,4.15
2022-08-05T23:08:45.621Z,5.45
2022-08-05T23:11:18.577Z,3.03
2022-08-05T23:13:44.980Z,2.47
2022-08-05T23:16:26.189Z,5.50
2022-08-05T23:19:00.161Z,4.93
2022-08-05T23:21:39.373Z,4.57
2022-08-05T23:24:11.058Z,4.70
2022-08-05T23:26:38.226Z,4.18
2022-08-05T23:29:05.240Z,3.90
2022-08-05T23:31:31.853Z,5.00
2022-08-05T23:34:03.735Z,4.22
2022-08-05T23:36:39.766Z,2.95
2022-08-05T23:39:16.571Z,6.03
2022-08-05T23:41:48.678Z,5.18
2022-08-05T23:44:16.493Z,5.85
2022-08-05T23:46:43.277Z,4.65
2022-08-05T23:49:16.993Z,2.88
2022-08-05T23:52:07.621Z,6.85
2022-08-05T23:54:38.489Z,4.05
2022-08-05T23:57:06.771Z,3.78
